Time;durP1;ratioP1;P1;durP2;ratioP2;P2;SDS_P1;SDS_P2;PMS_P1;PMS_P2;Temp;Humidity;BMP_temperature;BMP_pressure;BME280_temperature;BME280_humidity;BME280_pressure;Samples;Min_cycle;Max_cycle;Signal;HPM_P1;HPM_P2
2022/11/10 00:02:25;;;;;;;35.90;20.20;;;;;;;9.13;72.48;99129.17;103529;1284;97969;-69
2022/11/10 00:04:53;;;;;;;35.20;19.30;;;;;;;9.15;72.53;99127.45;103542;1291;107244;-70
2022/11/10 00:07:25;;;;;;;35.40;19.90;;;;;;;9.17;72.49;99127.08;103327;1287;97909;-72
2022/11/10 00:09:54;;;;;;;32.10;17.90;;;;;;;9.19;72.63;99129.59;103403;1292;97867;-71
2022/11/10 00:12:22;;;;;;;34.70;18.90;;;;;;;9.21;72.63;99128.59;103455;1298;111176;-71
2022/11/10 00:17:37;;;;;;;34.80;19.00;;;;;;;9.28;72.78;99133.83;103394;1291;107510;-71
2022/11/10 00:20:05;;;;;;;32.20;17.60;;;;;;;9.31;72.70;99134.13;103494;1290;97956;-70
2022/11/10 00:22:35;;;;;;;32.80;18.30;;;;;;;9.36;72.76;99132.41;103441;1298;95241;-69
2022/11/10 00:25:04;;;;;;;33.70;18.50;;;;;;;9.39;72.83;99126.86;103459;1290;111473;-72
2022/11/10 00:27:32;;;;;;;34.30;18.80;;;;;;;9.43;72.78;99130.87;103469;1290;97868;-70
2022/11/10 00:30:00;;;;;;;35.00;18.50;;;;;;;9.46;72.77;99124.48;103428;1295;107542;-71
2022/11/10 00:32:28;;;;;;;35.90;18.70;;;;;;;9.49;72.85;99124.98;103436;1294;95208;-70
2022/11/10 00:34:56;;;;;;;34.00;18.60;;;;;;;9.52;72.88;99127.60;103423;1291;97861;-72
2022/11/10 00:37:24;;;;;;;30.50;17.40;;;;;;;9.55;72.87;99126.02;103473;1291;111192;-70
2022/11/10 00:39:52;;;;;;;35.20;18.90;;;;;;;9.57;72.79;99122.90;103457;1285;98549;-71
2022/11/10 00:42:20;;;;;;;32.40;18.00;;;;;;;9.59;72.96;99125.91;103402;1298;107397;-70
2022/11/10 00:44:48;;;;;;;30.50;17.90;;;;;;;9.61;72.93;99130.91;103460;1298;98609;-69
2022/11/10 00:47:16;;;;;;;35.10;18.60;;;;;;;9.63;72.93;99128.86;103431;1290;95193;-71
2022/11/10 00:49:43;;;;;;;33.20;17.80;;;;;;;9.64;73.00;99123.84;103477;1292;111212;-69
2022/11/10 00:52:11;;;;;;;33.60;18.80;;;;;;;9.65;73.01;99124.06;103420;1298;97887;-69
2022/11/10 00:54:40;;;;;;;32.60;16.90;;;;;;;9.66;73.13;99126.83;103479;1298;107718;-69
2022/11/10 00:57:08;;;;;;;32.80;18.90;;;;;;;9.68;73.12;99127.61;103452;1286;97907;-69
2022/11/10 00:59:36;;;;;;;31.70;17.40;;;;;;;9.69;73.07;99124.02;103439;1290;95251;-70
2022/11/10 01:02:03;;;;;;;32.80;18.40;;;;;;;9.69;73.08;99128.07;103458;1290;110883;-69
2022/11/10 01:04:32;;;;;;;32.70;17.50;;;;;;;9.70;73.10;99128.39;103424;1291;97983;-71
2022/11/10 01:06:59;;;;;;;32.50;18.80;;;;;;;9.70;73.13;99131.36;103416;1294;107181;-70
2022/11/10 01:09:27;;;;;;;31.90;17.70;;;;;;;9.71;73.07;99135.06;103426;1297;98642;-70
2022/11/10 01:11:55;;;;;;;33.90;17.90;;;;;;;9.70;73.10;99131.77;103417;1291;97984;-74
2022/11/10 01:14:23;;;;;;;31.70;18.70;;;;;;;9.69;73.03;99137.13;103458;1290;111270;-71
2022/11/10 01:16:51;;;;;;;32.30;17.20;;;;;;;9.67;73.14;99132.80;103537;1290;97960;-69
2022/11/10 01:19:19;;;;;;;32.10;18.60;;;;;;;9.66;73.08;99132.02;103523;1290;108092;-69
2022/11/10 01:21:50;;;;;;;30.30;17.30;;;;;;;9.63;73.20;99134.83;103521;1292;97851;-69
2022/11/10 01:24:20;;;;;;;33.50;18.10;;;;;;;9.61;73.15;99132.30;103587;1290;97946;-69
2022/11/10 01:26:48;;;;;;;31.50;17.30;;;;;;;9.60;73.22;99134.00;103554;1299;111196;-69
2022/11/10 01:29:16;;;;;;;32.70;18.30;;;;;;;9.58;73.27;99135.73;103549;1295;97892;-70
2022/11/10 01:31:44;;;;;;;33.70;18.30;;;;;;;9.57;73.24;99137.36;103537;1291;108106;-69
2022/11/10 01:34:12;;;;;;;32.80;18.30;;;;;;;9.57;73.26;99134.58;103536;1292;97871;-69
2022/11/10 01:36:39;;;;;;;34.90;19.20;;;;;;;9.56;73.30;99133.07;103576;1290;97899;-70
2022/11/10 01:39:07;;;;;;;34.10;18.20;;;;;;;9.54;73.21;99138.48;103545;1284;110547;-70
2022/11/10 01:41:35;;;;;;;32.80;18.10;;;;;;;9.52;73.31;99141.95;103560;1290;97876;-70
2022/11/10 01:44:21;;;;;;;31.90;18.40;;;;;;;9.50;73.22;99141.19;103619;1290;107482;-70
2022/11/10 01:46:49;;;;;;;32.30;19.40;;;;;;;9.48;73.34;99137.11;103602;1294;95559;-69
2022/11/10 01:49:21;;;;;;;33.50;18.90;;;;;;;9.46;73.34;99136.51;103573;1290;97902;-70
2022/11/10 01:52:06;;;;;;;32.40;18.40;;;;;;;9.44;73.31;99139.29;103491;1291;111813;-69
2022/11/10 01:54:42;;;;;;;32.90;17.50;;;;;;;9.43;73.33;99140.61;103439;1290;98026;-69
2022/11/10 01:57:12;;;;;;;33.10;17.80;;;;;;;9.41;73.30;99134.90;103410;1281;105848;-70
2022/11/10 01:59:48;;;;;;;32.40;17.20;;;;;;;9.40;73.39;99134.45;103399;1290;97944;-69
2022/11/10 02:02:34;;;;;;;32.00;18.00;;;;;;;9.38;73.42;99135.08;103402;1291;96960;-69
2022/11/10 02:05:03;;;;;;;31.80;18.10;;;;;;;9.37;73.40;99135.48;103413;1296;111362;-70
2022/11/10 02:07:32;;;;;;;33.10;18.10;;;;;;;9.36;73.41;99135.06;103414;1290;97699;-71
2022/11/10 02:10:04;;;;;;;32.10;18.10;;;;;;;9.34;73.40;99140.88;103273;1298;107507;-70
2022/11/10 02:12:38;;;;;;;34.00;19.30;;;;;;;9.30;73.41;99147.48;103417;1292;97954;-71
2022/11/10 02:15:08;;;;;;;;;;;;;;;9.27;73.34;99154.05;103306;1291;95087;-70
2022/11/10 02:17:36;;;;;;;33.80;18.50;;;;;;;9.23;73.42;99156.09;103448;1294;111767;-69
2022/11/10 02:20:10;;;;;;;34.00;18.70;;;;;;;9.20;73.35;99161.19;103463;1298;98396;-69
2022/11/10 02:22:39;;;;;;;32.30;19.40;;;;;;;9.17;73.41;99162.30;103386;1291;108084;-70
2022/11/10 02:25:07;;;;;;;33.40;19.40;;;;;;;9.14;73.44;99165.85;103447;1298;97982;-70
2022/11/10 02:27:35;;;;;;;34.00;18.80;;;;;;;9.12;73.45;99166.70;103478;1290;97859;-70
2022/11/10 02:30:04;;;;;;;33.30;18.40;;;;;;;9.11;73.46;99168.91;103458;1288;111896;-69
2022/11/10 02:32:31;;;;;;;32.40;18.20;;;;;;;9.09;73.57;99171.14;103430;1290;95166;-70
2022/11/10 02:34:59;;;;;;;36.40;17.50;;;;;;;9.08;73.52;99172.98;103428;1294;107178;-69
2022/11/10 02:37:27;;;;;;;33.90;18.80;;;;;;;9.06;73.52;99174.66;103468;1290;98930;-69
2022/11/10 02:39:55;;;;;;;31.20;17.30;;;;;;;9.05;73.51;99173.48;103521;1298;97804;-69
2022/11/10 02:42:23;;;;;;;33.50;18.40;;;;;;;9.04;73.51;99178.73;103412;1290;111160;-69
2022/11/10 02:44:51;;;;;;;32.70;17.90;;;;;;;9.01;73.56;99175.34;103401;1298;97619;-69
2022/11/10 02:47:19;;;;;;;34.30;18.50;;;;;;;8.99;73.58;99172.30;103392;1293;106514;-69
2022/11/10 02:49:47;;;;;;;34.60;18.80;;;;;;;8.97;73.59;99174.56;103395;1288;95157;-69
2022/11/10 02:52:14;;;;;;;34.00;18.20;;;;;;;8.96;73.59;99175.35;103427;1290;98557;-68
2022/11/10 02:54:42;;;;;;;31.90;16.80;;;;;;;8.93;73.56;99179.04;103381;1288;111489;-69
2022/11/10 02:57:10;;;;;;;34.40;17.80;;;;;;;8.91;73.62;99178.70;103522;1290;97767;-71
2022/11/10 02:59:38;;;;;;;35.00;19.70;;;;;;;8.87;73.54;99178.01;103471;1291;107789;-69
2022/11/10 03:02:06;;;;;;;34.80;18.30;;;;;;;8.84;73.59;99179.63;103496;1298;97964;-69
2022/11/10 03:04:34;;;;;;;32.60;17.40;;;;;;;8.81;73.59;99186.89;103480;1297;97928;-69
2022/11/10 03:07:02;;;;;;;32.40;18.10;;;;;;;8.78;73.68;99183.16;103269;1293;110998;-72
2022/11/10 03:09:30;;;;;;;32.90;18.80;;;;;;;8.76;73.70;99183.87;103438;1298;98443;-68
2022/11/10 03:11:58;;;;;;;33.40;17.80;;;;;;;8.74;73.63;99189.63;103317;1298;108118;-69
2022/11/10 03:14:26;;;;;;;33.00;18.10;;;;;;;8.72;73.80;99193.15;103484;1298;96536;-70
2022/11/10 03:16:53;;;;;;;32.60;17.60;;;;;;;8.70;73.74;99193.42;103441;1294;95151;-69
2022/11/10 03:19:21;;;;;;;34.50;18.00;;;;;;;8.67;73.64;99195.19;103492;1290;111147;-69
2022/11/10 03:21:49;;;;;;;32.40;17.90;;;;;;;8.65;73.82;99201.69;103352;1293;97968;-69
2022/11/10 03:24:17;;;;;;;35.50;19.00;;;;;;;8.62;73.72;99199.39;103420;1290;107322;-70
2022/11/10 03:26:45;;;;;;;31.30;17.70;;;;;;;8.61;73.74;99201.77;103592;1285;97977;-69
2022/11/10 03:29:13;;;;;;;36.90;19.90;;;;;;;8.60;73.88;99201.61;103550;1291;97879;-69
2022/11/10 03:31:41;;;;;;;30.30;17.40;;;;;;;8.60;73.84;99206.06;103410;1290;111520;-69
2022/11/10 03:34:08;;;;;;;36.60;19.50;;;;;;;8.57;73.80;99202.70;103478;1290;97835;-69
2022/11/10 03:36:37;;;;;;;33.30;18.10;;;;;;;8.53;73.71;99203.84;103493;1299;107099;-69
2022/11/10 03:39:04;;;;;;;32.90;18.40;;;;;;;8.48;73.74;99205.52;103538;1298;95197;-70
2022/11/10 03:41:33;;;;;;;33.60;18.40;;;;;;;8.46;73.70;99208.45;103535;1292;98917;-70
2022/11/10 03:44:01;;;;;;;32.80;18.10;;;;;;;8.43;73.78;99209.57;103539;1290;111773;-70
2022/11/10 03:46:29;;;;;;;33.70;19.20;;;;;;;8.39;73.74;99212.45;103534;1298;97998;-72
2022/11/10 03:48:57;;;;;;;34.40;18.80;;;;;;;8.35;73.72;99212.67;103569;1297;106565;-71
2022/11/10 03:51:25;;;;;;;32.70;18.00;;;;;;;8.31;73.77;99217.15;103558;1298;97897;-69
2022/11/10 03:53:52;;;;;;;32.10;18.20;;;;;;;8.26;73.76;99217.13;103581;1292;98032;-69
2022/11/10 03:56:20;;;;;;;35.00;18.70;;;;;;;8.21;73.67;99218.27;103473;1298;111665;-69
2022/11/10 03:58:48;;;;;;;34.70;18.10;;;;;;;8.18;73.79;99218.82;103456;1291;97898;-69
2022/11/10 04:01:17;;;;;;;37.30;19.70;;;;;;;8.15;73.93;99215.45;103535;1292;106831;-69
2022/11/10 04:03:45;;;;;;;31.40;17.70;;;;;;;8.14;74.01;99219.95;103556;1298;97952;-71
2022/11/10 04:09:06;;;;;;;32.80;18.50;;;;;;;8.11;74.14;99226.64;103556;1297;111811;-69
2022/11/10 04:17:08;;;;;;;36.10;18.10;;;;;;;8.10;73.90;99232.36;103556;1298;98014;-69
2022/11/10 04:19:36;;;;;;;34.30;18.30;;;;;;;8.08;74.04;99228.09;103539;1297;95192;-71
2022/11/10 04:22:04;;;;;;;32.90;17.80;;;;;;;8.07;74.19;99232.21;103557;1290;111087;-69
2022/11/10 04:24:32;;;;;;;35.80;18.70;;;;;;;8.07;73.98;99231.70;103566;1291;97872;-69
2022/11/10 04:26:59;;;;;;;35.30;19.60;;;;;;;8.06;74.03;99235.42;103525;1298;107496;-70
2022/11/10 04:29:27;;;;;;;32.00;17.70;;;;;;;8.04;74.10;99237.82;103377;1298;95763;-70
2022/11/10 04:31:55;;;;;;;33.20;19.10;;;;;;;8.03;74.23;99235.79;103575;1294;95156;-71
2022/11/10 04:34:22;;;;;;;33.80;19.00;;;;;;;8.02;74.02;99239.19;103558;1290;110842;-70
2022/11/10 04:36:50;;;;;;;32.20;18.10;;;;;;;8.00;74.19;99238.26;103577;1294;97914;-70
2022/11/10 04:39:19;;;;;;;34.30;18.80;;;;;;;7.98;74.19;99237.66;103331;1294;106948;-71
2022/11/10 04:41:47;;;;;;;33.30;18.40;;;;;;;7.97;74.11;99239.31;103580;1290;97873;-70
2022/11/10 04:44:15;;;;;;;31.50;18.30;;;;;;;7.96;74.24;99237.80;103460;1297;131959;-69
2022/11/10 04:46:43;;;;;;;36.20;18.90;;;;;;;7.93;74.14;99238.83;103496;1296;111101;-72
2022/11/10 04:49:13;;;;;;;31.90;17.20;;;;;;;7.92;74.21;99237.86;103580;1291;97936;-69
2022/11/10 04:51:41;;;;;;;33.90;18.40;;;;;;;7.90;74.25;99244.66;103334;1297;107664;-69
2022/11/10 04:54:10;;;;;;;32.90;18.00;;;;;;;7.88;74.16;99246.02;103314;1293;98555;-70
2022/11/10 04:56:39;;;;;;;31.00;16.40;;;;;;;7.86;74.17;99247.35;103603;1291;97840;-70
2022/11/10 04:59:07;;;;;;;31.40;17.60;;;;;;;7.85;74.31;99247.23;103505;1291;111602;-70
2022/11/10 05:01:35;;;;;;;32.10;17.80;;;;;;;7.83;74.29;99250.36;103565;1291;97930;-69
2022/11/10 05:04:04;;;;;;;32.90;19.30;;;;;;;7.81;74.28;99254.34;103604;1281;106049;-70
2022/11/10 05:06:32;;;;;;;36.00;18.80;;;;;;;7.79;74.34;99255.56;103538;1298;98066;-70
2022/11/10 05:09:00;;;;;;;33.10;17.90;;;;;;;7.77;74.36;99254.95;103555;1290;97970;-70
2022/11/10 05:11:28;;;;;;;32.50;16.60;;;;;;;7.76;74.35;99258.02;103605;1291;111097;-71
2022/11/10 05:13:56;;;;;;;34.00;18.90;;;;;;;7.74;74.16;99257.39;103581;1298;97971;-71
2022/11/10 05:16:24;;;;;;;33.80;18.70;;;;;;;7.72;74.44;99256.13;103545;1298;107574;-71
2022/11/10 05:18:53;;;;;;;34.10;18.00;;;;;;;7.70;74.45;99259.05;103568;1296;96960;-72
2022/11/10 05:21:21;;;;;;;33.60;18.50;;;;;;;7.70;74.50;99260.64;103563;1290;97893;-71
2022/11/10 05:23:48;;;;;;;34.60;18.60;;;;;;;7.70;74.45;99262.43;103528;1290;111170;-70
2022/11/10 05:26:17;;;;;;;35.80;18.20;;;;;;;7.70;74.56;99267.55;103522;1298;98301;-70
2022/11/10 05:28:45;;;;;;;33.00;18.10;;;;;;;7.69;74.40;99275.73;103565;1290;107529;-69
2022/11/10 05:31:13;;;;;;;37.10;19.00;;;;;;;7.68;74.39;99281.24;103560;1292;97886;-71
2022/11/10 05:33:41;;;;;;;36.40;19.80;;;;;;;7.68;74.54;99282.86;103353;1291;97880;-68
2022/11/10 05:36:09;;;;;;;35.30;19.00;;;;;;;7.67;74.59;99287.30;103498;1284;111727;-70
2022/11/10 05:38:38;;;;;;;35.70;18.90;;;;;;;7.66;74.36;99289.09;103491;1293;96269;-70
2022/11/10 05:41:10;;;;;;;36.90;20.70;;;;;;;7.65;74.46;99287.94;103518;1298;107375;-73
2022/11/10 05:43:39;;;;;;;35.60;19.80;;;;;;;7.65;74.58;99295.52;103509;1298;97967;-72
2022/11/10 05:46:07;;;;;;;37.80;20.60;;;;;;;7.66;74.64;99302.20;103509;1290;97899;-69
2022/11/10 05:48:35;;;;;;;34.30;19.70;;;;;;;7.66;74.69;99306.77;103344;1299;110890;-70
2022/11/10 05:51:02;;;;;;;36.30;21.30;;;;;;;7.66;74.53;99307.16;103494;1291;97970;-72
2022/11/10 05:53:30;;;;;;;36.00;20.30;;;;;;;7.65;74.76;99311.78;103539;1292;107551;-72
2022/11/10 05:55:58;;;;;;;38.60;21.40;;;;;;;7.64;74.46;99313.38;103571;1299;97977;-72
2022/11/10 05:58:26;;;;;;;39.20;19.60;;;;;;;7.66;74.73;99323.71;103579;1291;95587;-69
2022/11/10 06:00:54;;;;;;;36.70;20.70;;;;;;;7.68;74.62;99327.15;103526;1291;111138;-70
2022/11/10 06:03:21;;;;;;;41.10;20.00;;;;;;;7.69;74.82;99337.14;103516;1296;98075;-70
2022/11/10 06:05:50;;;;;;;39.30;21.50;;;;;;;7.71;74.69;99341.48;103385;1295;107540;-70
2022/11/10 06:08:19;;;;;;;35.40;19.80;;;;;;;7.74;74.68;99347.95;103452;1290;97956;-69
2022/11/10 06:10:47;;;;;;;39.70;21.40;;;;;;;7.79;74.84;99346.85;103370;1297;98513;-70
2022/11/10 06:13:15;;;;;;;39.80;21.00;;;;;;;7.83;74.91;99352.80;103440;1293;110880;-69
2022/11/10 06:15:43;;;;;;;38.90;20.40;;;;;;;7.87;74.80;99355.36;103308;1290;97900;-70
2022/11/10 06:18:17;;;;;;;;;;;;;;;7.91;74.96;99356.73;103561;1290;107984;-70
2022/11/10 06:20:46;;;;;;;34.70;18.40;;;;;;;7.93;74.99;99358.04;103391;1290;98840;-71
2022/11/10 06:23:14;;;;;;;36.30;21.00;;;;;;;7.98;74.92;99362.36;103457;1290;95282;-70
2022/11/10 06:25:43;;;;;;;37.70;21.10;;;;;;;8.02;74.84;99363.69;103416;1298;111267;-70
2022/11/10 06:28:13;;;;;;;39.80;22.20;;;;;;;8.07;74.86;99366.81;103477;1296;97933;-70
2022/11/10 06:30:41;;;;;;;38.90;21.00;;;;;;;8.11;74.90;99365.33;103425;1290;107555;-70
2022/11/10 06:33:09;;;;;;;39.10;21.40;;;;;;;8.15;74.84;99372.84;103505;1291;99054;-71
2022/11/10 06:35:37;;;;;;;40.00;21.00;;;;;;;8.17;74.91;99377.52;103527;1288;97831;-71
2022/11/10 06:38:09;;;;;;;38.40;21.70;;;;;;;8.17;74.81;99377.88;103546;1285;111113;-71
2022/11/10 06:40:37;;;;;;;38.10;22.10;;;;;;;8.19;74.84;99380.92;103586;1290;95307;-71
2022/11/10 06:43:05;;;;;;;41.40;22.40;;;;;;;8.19;74.79;99381.61;103563;1290;107578;-71
2022/11/10 06:45:32;;;;;;;37.60;21.80;;;;;;;8.21;74.82;99390.33;103560;1291;97961;-74
2022/11/10 06:48:05;;;;;;;36.00;21.60;;;;;;;8.21;74.85;99394.57;103567;1296;98006;-74
2022/11/10 06:50:33;;;;;;;40.60;21.80;;;;;;;8.20;75.05;99396.22;103551;1292;111214;-72
2022/11/10 06:53:01;;;;;;;39.60;22.50;;;;;;;8.19;74.92;99399.29;103459;1298;95106;-70
2022/11/10 06:55:29;;;;;;;42.50;22.70;;;;;;;8.22;74.90;99397.76;103456;1290;105425;-71
2022/11/10 06:57:58;;;;;;;42.30;24.10;;;;;;;8.23;74.92;99402.25;103418;1298;97927;-72
2022/11/10 07:00:28;;;;;;;42.40;23.50;;;;;;;8.26;74.92;99403.14;103478;1298;97842;-72
2022/11/10 07:03:07;;;;;;;44.30;24.70;;;;;;;8.30;74.93;99408.77;103540;1290;111224;-70
2022/11/10 07:05:35;;;;;;;45.10;26.90;;;;;;;8.33;75.04;99412.44;103571;1298;97973;-70
2022/11/10 07:08:05;;;;;;;44.60;25.00;;;;;;;8.38;74.96;99410.42;103552;1298;107220;-70
2022/11/10 07:10:35;;;;;;;43.90;25.40;;;;;;;8.43;75.05;99412.63;103511;1290;97975;-70
2022/11/10 07:13:04;;;;;;;37.60;22.90;;;;;;;8.47;75.00;99413.05;103498;1298;95345;-69
2022/11/10 07:15:33;;;;;;;42.90;24.30;;;;;;;8.53;75.07;99414.36;103534;1290;110914;-71
2022/11/10 07:18:02;;;;;;;41.00;23.70;;;;;;;8.59;75.08;99416.09;103299;1301;97981;-71
2022/11/10 07:20:31;;;;;;;39.40;23.40;;;;;;;8.63;75.13;99411.48;103508;1291;107494;-72
2022/11/10 07:23:04;;;;;;;40.90;23.30;;;;;;;8.68;75.16;99420.75;103553;1290;97912;-70
2022/11/10 07:25:36;;;;;;;41.10;23.40;;;;;;;8.75;75.09;99426.64;103585;1290;97916;-74
2022/11/10 07:28:06;;;;;;;39.00;22.10;;;;;;;8.85;75.32;99431.08;103336;1293;110823;-71
2022/11/10 07:30:34;;;;;;;41.50;23.80;;;;;;;8.92;75.22;99432.36;103375;1293;97799;-71
2022/11/10 07:33:06;;;;;;;40.30;22.20;;;;;;;9.01;75.28;99429.73;103538;1291;106874;-73
2022/11/10 07:35:35;;;;;;;35.80;20.90;;;;;;;9.11;75.35;99427.02;103479;1291;98586;-71
2022/11/10 07:38:10;;;;;;;39.80;22.30;;;;;;;9.20;75.28;99431.77;103545;1290;97879;-70
2022/11/10 07:40:38;;;;;;;37.30;21.00;;;;;;;9.28;75.29;99433.98;103471;1298;111128;-69
2022/11/10 07:43:06;;;;;;;40.30;21.30;;;;;;;9.32;75.32;99437.95;103414;1291;98260;-70
2022/11/10 07:45:33;;;;;;;35.90;20.50;;;;;;;9.36;75.32;99439.49;103302;1293;106535;-71
2022/11/10 07:48:04;;;;;;;38.30;21.50;;;;;;;9.39;75.29;99447.42;103313;1301;98073;-71
2022/11/10 07:50:32;;;;;;;38.90;20.90;;;;;;;9.42;75.29;99447.25;103503;1298;95248;-71
2022/11/10 07:53:12;;;;;;;35.90;20.40;;;;;;;9.44;75.28;99442.52;103523;1292;111119;-71
2022/11/10 07:55:42;;;;;;;37.10;20.30;;;;;;;9.47;75.36;99447.82;103383;1300;97573;-71
2022/11/10 07:58:12;;;;;;;36.90;20.40;;;;;;;9.49;75.30;99451.80;103504;1298;109108;-70
2022/11/10 08:00:41;;;;;;;33.80;18.60;;;;;;;9.51;75.17;99453.42;103544;1306;97958;-71
2022/11/10 08:03:18;;;;;;;32.80;17.60;;;;;;;9.50;75.15;99457.54;103557;1290;97857;-71
2022/11/10 08:05:47;;;;;;;33.70;18.10;;;;;;;9.51;75.18;99459.05;103541;1290;111176;-72
2022/11/10 08:08:15;;;;;;;33.70;17.40;;;;;;;9.52;75.15;99450.54;103543;1291;97873;-71
2022/11/10 08:10:43;;;;;;;30.90;17.60;;;;;;;9.53;75.21;99459.11;103518;1290;107108;-71
2022/11/10 08:13:13;;;;;;;33.10;18.20;;;;;;;9.56;75.24;99465.34;103306;1301;97851;-69
2022/11/10 08:15:41;;;;;;;32.30;17.90;;;;;;;9.58;75.21;99468.91;103467;1292;95212;-71
2022/11/10 08:18:14;;;;;;;31.70;18.30;;;;;;;9.62;75.25;99475.60;103442;1289;112880;-69
2022/11/10 08:20:42;;;;;;;34.10;18.30;;;;;;;9.63;75.26;99473.20;103540;1298;97961;-71
2022/11/10 08:23:11;;;;;;;37.20;18.40;;;;;;;9.66;75.27;99473.02;103569;1298;107311;-70
2022/11/10 08:25:39;;;;;;;31.20;16.80;;;;;;;9.69;75.20;99475.86;103482;1298;97879;-69
2022/11/10 08:28:13;;;;;;;31.10;17.40;;;;;;;9.73;75.23;99479.70;103522;1290;97858;-71
2022/11/10 08:30:43;;;;;;;32.20;16.00;;;;;;;9.76;75.18;99480.24;103511;1291;111173;-71
2022/11/10 08:33:14;;;;;;;28.90;15.40;;;;;;;9.79;75.25;99483.20;103528;1298;97831;-71
2022/11/10 08:35:45;;;;;;;34.90;16.70;;;;;;;9.82;75.16;99488.70;103476;1291;107425;-71
2022/11/10 08:38:16;;;;;;;30.10;16.60;;;;;;;9.84;75.09;99491.04;103557;1298;97783;-70
2022/11/10 08:40:45;;;;;;;32.90;16.70;;;;;;;9.87;75.21;99493.52;103502;1294;97846;-71
2022/11/10 08:43:14;;;;;;;30.20;16.50;;;;;;;9.90;75.28;99495.30;103358;1290;110829;-70
2022/11/10 08:45:43;;;;;;;29.40;16.90;;;;;;;9.96;75.18;99493.52;103480;1298;98008;-70
2022/11/10 08:48:17;;;;;;;29.00;15.70;;;;;;;10.00;75.15;99504.71;103388;1296;108081;-70
2022/11/10 08:50:46;;;;;;;26.70;14.40;;;;;;;10.04;75.17;99508.92;103397;1298;98389;-69
2022/11/10 08:53:16;;;;;;;30.10;15.90;;;;;;;10.07;75.11;99509.82;103592;1290;97931;-70
2022/11/10 08:55:45;;;;;;;31.00;14.70;;;;;;;10.11;75.11;99512.20;103544;1290;110247;-71
2022/11/10 08:58:16;;;;;;;28.60;14.80;;;;;;;10.18;75.19;99517.60;103628;1290;97938;-72
2022/11/10 09:00:45;;;;;;;31.30;15.30;;;;;;;10.26;75.08;99519.76;103536;1291;107616;-72
2022/11/10 09:03:15;;;;;;;27.60;14.60;;;;;;;10.33;75.09;99521.65;103562;1290;96527;-70
2022/11/10 09:05:45;;;;;;;26.40;14.60;;;;;;;10.41;75.16;99526.29;103506;1297;96938;-71
2022/11/10 09:08:14;;;;;;;27.90;13.70;;;;;;;10.48;75.03;99527.83;103534;1297;111138;-72
2022/11/10 09:10:46;;;;;;;27.10;13.70;;;;;;;10.53;75.09;99530.45;103569;1292;97901;-70
2022/11/10 09:13:15;;;;;;;26.40;13.30;;;;;;;10.61;75.03;99530.33;103545;1297;107490;-72
2022/11/10 09:15:43;;;;;;;26.70;14.20;;;;;;;10.67;75.00;99524.80;103498;1298;97913;-71
2022/11/10 09:18:14;;;;;;;27.80;15.10;;;;;;;10.74;74.96;99525.08;103269;1291;97946;-70
2022/11/10 09:20:42;;;;;;;28.40;14.50;;;;;;;10.80;75.02;99531.95;103437;1298;111160;-69
2022/11/10 09:23:16;;;;;;;24.90;13.60;;;;;;;10.84;74.94;99534.86;103391;1297;98049;-69
2022/11/10 09:25:50;;;;;;;29.30;15.50;;;;;;;10.86;74.99;99541.83;103452;1296;107914;-68
2022/11/10 09:28:19;;;;;;;30.70;16.60;;;;;;;10.86;74.90;99546.58;103461;1297;98077;-69
2022/11/10 09:30:49;;;;;;;25.90;13.90;;;;;;;10.82;74.69;99555.22;103503;1291;97878;-74
2022/11/10 09:33:17;;;;;;;28.80;15.60;;;;;;;10.79;74.63;99564.27;103390;1298;113256;-71
2022/11/10 09:35:45;;;;;;;33.70;16.70;;;;;;;10.76;74.36;99569.42;103461;1296;97998;-71
2022/11/10 09:38:12;;;;;;;33.70;17.30;;;;;;;10.71;74.62;99566.35;103542;1294;106569;-70
2022/11/10 09:41:06;;;;;;;31.70;17.20;;;;;;;10.71;74.65;99570.64;103521;1290;97974;-72
2022/11/10 09:43:44;;;;;;;33.90;17.90;;;;;;;10.67;74.62;99573.01;103330;1298;97055;-72
2022/11/10 09:46:37;;;;;;;31.50;16.90;;;;;;;10.65;74.52;99574.92;103438;1298;111052;-72
2022/11/10 09:49:28;;;;;;;33.40;17.40;;;;;;;10.63;74.66;99580.92;103543;1298;96997;-71
2022/11/10 09:51:59;;;;;;;35.10;19.40;;;;;;;10.62;74.67;99586.48;103517;1296;107554;-72
2022/11/10 09:54:41;;;;;;;35.20;18.60;;;;;;;10.59;74.42;99591.27;103520;1292;97895;-72
2022/11/10 09:57:13;;;;;;;37.10;20.00;;;;;;;10.56;74.48;99594.14;103515;1293;95792;-72
2022/11/10 09:59:43;;;;;;;37.90;19.80;;;;;;;10.53;74.49;99593.45;103530;1290;110072;-72
2022/11/10 10:02:39;;;;;;;40.40;22.40;;;;;;;10.50;74.46;99594.02;103515;1292;97877;-72
2022/11/10 10:05:47;;;;;;;42.80;21.80;;;;;;;10.44;74.51;99595.39;103407;1291;107446;-70
2022/11/10 10:08:30;;;;;;;41.70;22.60;;;;;;;10.41;74.47;99596.33;103422;1294;97907;-71
2022/11/10 10:11:07;;;;;;;36.50;19.40;;;;;;;10.38;74.46;99597.21;103423;1296;97885;-73
2022/11/10 10:13:47;;;;;;;46.10;24.60;;;;;;;10.34;74.43;99604.70;103421;1298;111506;-72
2022/11/10 10:16:26;;;;;;;46.30;26.80;;;;;;;10.29;74.47;99609.41;103443;1291;96528;-72
2022/11/10 10:19:14;;;;;;;49.10;28.00;;;;;;;10.21;74.47;99609.74;103439;1297;107136;-73
2022/11/10 10:22:06;;;;;;;44.60;25.70;;;;;;;10.13;74.52;99616.14;103406;1297;96991;-72
2022/11/10 10:24:37;;;;;;;44.90;25.80;;;;;;;9.98;74.46;99614.90;103470;1291;98034;-73
2022/11/10 10:27:11;;;;;;;44.20;25.80;;;;;;;9.87;74.53;99615.41;103506;1296;110871;-71
2022/11/10 10:29:44;;;;;;;41.60;23.90;;;;;;;9.78;74.58;99620.91;103448;1298;95573;-72
2022/11/10 10:32:13;;;;;;;41.90;25.80;;;;;;;9.70;74.65;99621.71;103513;1298;107180;-73
2022/11/10 10:34:43;;;;;;;40.50;23.20;;;;;;;9.65;74.63;99622.37;103522;1296;97854;-72
2022/11/10 10:37:29;;;;;;;43.00;24.50;;;;;;;9.63;74.63;99624.27;103621;1290;97871;-72
2022/11/10 10:39:57;;;;;;;41.80;22.90;;;;;;;9.59;74.67;99621.48;103554;1290;111172;-72
2022/11/10 10:42:36;;;;;;;42.40;23.60;;;;;;;9.57;74.80;99620.89;103563;1294;97894;-73
2022/11/10 10:45:19;;;;;;;41.70;22.40;;;;;;;9.54;74.90;99621.78;103374;1298;107382;-73
2022/11/10 10:47:53;;;;;;;38.90;21.00;;;;;;;9.51;74.76;99626.19;103597;1304;97768;-72
2022/11/10 10:50:23;;;;;;;38.70;21.60;;;;;;;9.49;74.66;99621.52;103610;1294;95290;-72
2022/11/10 10:53:09;;;;;;;38.50;21.40;;;;;;;9.47;74.80;99619.88;103551;1297;111052;-73
2022/11/10 10:55:38;;;;;;;37.30;21.10;;;;;;;9.45;75.06;99624.42;103436;1297;95077;-73
2022/11/10 10:58:28;;;;;;;38.00;21.70;;;;;;;9.44;74.94;99625.59;103390;1292;107593;-74
2022/11/10 11:01:18;;;;;;;36.90;19.60;;;;;;;9.45;75.04;99628.88;103399;1298;97866;-72
2022/11/10 11:03:49;;;;;;;37.60;21.60;;;;;;;9.47;75.02;99628.02;103301;1290;97927;-72
2022/11/10 11:06:18;;;;;;;39.20;21.90;;;;;;;9.49;75.13;99627.38;103476;1291;111159;-72
2022/11/10 11:08:54;;;;;;;37.40;20.10;;;;;;;9.50;75.12;99632.11;103508;1297;97919;-71
2022/11/10 11:11:35;;;;;;;38.50;21.10;;;;;;;9.51;75.10;99632.40;103462;1296;107569;-71
2022/11/10 11:14:28;;;;;;;37.00;21.00;;;;;;;9.53;75.24;99635.48;103370;1290;95173;-72
2022/11/10 11:17:20;;;;;;;40.20;21.20;;;;;;;9.52;75.13;99642.95;103591;1300;97842;-71
2022/11/10 11:19:53;;;;;;;39.50;21.00;;;;;;;9.53;75.18;99646.95;103592;1290;111348;-69
2022/11/10 11:22:58;;;;;;;37.70;19.70;;;;;;;9.57;75.35;99647.48;103530;1290;97854;-70
2022/11/10 11:25:35;;;;;;;39.20;21.00;;;;;;;9.57;75.16;99654.89;103460;1298;107220;-72
2022/11/10 11:28:15;;;;;;;35.80;20.70;;;;;;;9.57;75.04;99655.42;103451;1298;97965;-72
2022/11/10 11:31:21;;;;;;;38.30;21.20;;;;;;;9.54;75.38;99657.17;103476;1294;96232;-71
2022/11/10 11:34:16;;;;;;;45.70;22.30;;;;;;;9.54;75.28;99658.09;103476;1289;111115;-71
2022/11/10 11:37:10;;;;;;;38.30;21.00;;;;;;;9.55;75.20;99656.63;103398;1297;95908;-71
2022/11/10 11:40:04;;;;;;;43.40;23.20;;;;;;;9.55;75.17;99663.88;103411;1299;108108;-71
2022/11/10 11:42:57;;;;;;;40.90;21.90;;;;;;;9.55;75.27;99670.29;103498;1288;97864;-71
2022/11/10 11:45:51;;;;;;;42.40;23.10;;;;;;;9.53;75.27;99673.56;103537;1290;95163;-71